sensor_id;sensor_type;location;lat;lon;timestamp;pressure;altitude;pressure_sealevel;temperature
41593;BMP180;28026;48.562;14.440;2023-04-06T00:01:11;93890.00;;;9.10
41593;BMP180;28026;48.562;14.440;2023-04-06T00:03:42;93892.00;;;9.10
41593;BMP180;28026;48.562;14.440;2023-04-06T00:06:13;93891.00;;;9.10
41593;BMP180;28026;48.562;14.440;2023-04-06T00:08:44;93889.00;;;9.10
41593;BMP180;28026;48.562;14.440;2023-04-06T00:11:15;93882.00;;;9.10
41593;BMP180;28026;48.562;14.440;2023-04-06T00:13:47;93870.00;;;9.10
41593;BMP180;28026;48.562;14.440;2023-04-06T00:16:20;93875.00;;;9.10
41593;BMP180;28026;48.562;14.440;2023-04-06T00:18:51;93875.00;;;9.10
41593;BMP180;28026;48.562;14.440;2023-04-06T00:21:22;93870.00;;;9.00
41593;BMP180;28026;48.562;14.440;2023-04-06T00:23:53;93874.00;;;9.00
41593;BMP180;28026;48.562;14.440;2023-04-06T00:26:24;93870.00;;;8.90
41593;BMP180;28026;48.562;14.440;2023-04-06T00:28:55;93865.00;;;8.90
41593;BMP180;28026;48.562;14.440;2023-04-06T00:31:26;93865.00;;;8.90
41593;BMP180;28026;48.562;14.440;2023-04-06T00:33:58;93862.00;;;8.90
41593;BMP180;28026;48.562;14.440;2023-04-06T00:36:29;93847.00;;;8.80
41593;BMP180;28026;48.562;14.440;2023-04-06T00:39:00;93852.00;;;8.80
41593;BMP180;28026;48.562;14.440;2023-04-06T00:41:31;93856.00;;;8.80
41593;BMP180;28026;48.562;14.440;2023-04-06T00:44:02;93858.00;;;8.80
41593;BMP180;28026;48.562;14.440;2023-04-06T00:46:33;93853.00;;;8.80
41593;BMP180;28026;48.562;14.440;2023-04-06T00:49:05;93849.00;;;8.70
41593;BMP180;28026;48.562;14.440;2023-04-06T00:51:36;93852.00;;;8.70
41593;BMP180;28026;48.562;14.440;2023-04-06T00:54:07;93848.00;;;8.70
41593;BMP180;28026;48.562;14.440;2023-04-06T00:56:38;93846.00;;;8.70
41593;BMP180;28026;48.562;14.440;2023-04-06T00:59:10;93847.00;;;8.70
41593;BMP180;28026;48.562;14.440;2023-04-06T01:01:42;93853.00;;;8.60
41593;BMP180;28026;48.562;14.440;2023-04-06T01:04:13;93855.00;;;8.60
41593;BMP180;28026;48.562;14.440;2023-04-06T01:06:43;93845.00;;;8.50
41593;BMP180;28026;48.562;14.440;2023-04-06T01:09:17;93839.00;;;8.50
41593;BMP180;28026;48.562;14.440;2023-04-06T01:11:48;93848.00;;;8.40
41593;BMP180;28026;48.562;14.440;2023-04-06T01:14:19;93851.00;;;8.30
41593;BMP180;28026;48.562;14.440;2023-04-06T01:16:51;93849.00;;;8.30
41593;BMP180;28026;48.562;14.440;2023-04-06T01:19:22;93845.00;;;8.20
41593;BMP180;28026;48.562;14.440;2023-04-06T01:21:54;93833.00;;;8.20
41593;BMP180;28026;48.562;14.440;2023-04-06T01:24:26;93842.00;;;8.20
41593;BMP180;28026;48.562;14.440;2023-04-06T01:26:57;93847.00;;;8.20
41593;BMP180;28026;48.562;14.440;2023-04-06T01:29:28;93836.00;;;8.10
41593;BMP180;28026;48.562;14.440;2023-04-06T01:31:58;93832.00;;;8.00
41593;BMP180;28026;48.562;14.440;2023-04-06T01:34:29;93831.00;;;8.00
41593;BMP180;28026;48.562;14.440;2023-04-06T01:37:00;93838.00;;;8.00
41593;BMP180;28026;48.562;14.440;2023-04-06T01:39:31;93836.00;;;8.00
41593;BMP180;28026;48.562;14.440;2023-04-06T01:42:02;93833.00;;;8.00
41593;BMP180;28026;48.562;14.440;2023-04-06T01:44:33;93831.00;;;8.00
41593;BMP180;28026;48.562;14.440;2023-04-06T01:47:04;93828.00;;;8.00
41593;BMP180;28026;48.562;14.440;2023-04-06T01:49:35;93825.00;;;7.90
41593;BMP180;28026;48.562;14.440;2023-04-06T01:52:06;93832.00;;;7.90
41593;BMP180;28026;48.562;14.440;2023-04-06T01:54:37;93831.00;;;7.90
41593;BMP180;28026;48.562;14.440;2023-04-06T01:57:10;93825.00;;;7.90
41593;BMP180;28026;48.562;14.440;2023-04-06T01:59:41;93836.00;;;7.90
41593;BMP180;28026;48.562;14.440;2023-04-06T02:02:12;93835.00;;;7.90
41593;BMP180;28026;48.562;14.440;2023-04-06T02:04:43;93826.00;;;7.80
41593;BMP180;28026;48.562;14.440;2023-04-06T02:07:14;93831.00;;;7.80
41593;BMP180;28026;48.562;14.440;2023-04-06T02:09:45;93839.00;;;7.80
41593;BMP180;28026;48.562;14.440;2023-04-06T02:12:16;93832.00;;;7.80
41593;BMP180;28026;48.562;14.440;2023-04-06T02:14:47;93833.00;;;7.70
41593;BMP180;28026;48.562;14.440;2023-04-06T02:17:18;93822.00;;;7.70
41593;BMP180;28026;48.562;14.440;2023-04-06T02:19:49;93838.00;;;7.60
41593;BMP180;28026;48.562;14.440;2023-04-06T02:22:19;93835.00;;;7.60
41593;BMP180;28026;48.562;14.440;2023-04-06T02:24:50;93821.00;;;7.60
41593;BMP180;28026;48.562;14.440;2023-04-06T02:27:21;93837.00;;;7.60
41593;BMP180;28026;48.562;14.440;2023-04-06T02:29:52;93837.00;;;7.60
41593;BMP180;28026;48.562;14.440;2023-04-06T02:32:24;93826.00;;;7.50
41593;BMP180;28026;48.562;14.440;2023-04-06T02:34:55;93837.00;;;7.50
41593;BMP180;28026;48.562;14.440;2023-04-06T02:37:26;93831.00;;;7.50
41593;BMP180;28026;48.562;14.440;2023-04-06T02:39:57;93823.00;;;7.50
41593;BMP180;28026;48.562;14.440;2023-04-06T02:42:28;93825.00;;;7.40
41593;BMP180;28026;48.562;14.440;2023-04-06T02:44:59;93822.00;;;7.40
41593;BMP180;28026;48.562;14.440;2023-04-06T02:47:30;93832.00;;;7.40
41593;BMP180;28026;48.562;14.440;2023-04-06T02:50:01;93834.00;;;7.40
41593;BMP180;28026;48.562;14.440;2023-04-06T02:52:32;93827.00;;;7.40
41593;BMP180;28026;48.562;14.440;2023-04-06T02:55:04;93832.00;;;7.30
41593;BMP180;28026;48.562;14.440;2023-04-06T02:57:37;93838.00;;;7.30
41593;BMP180;28026;48.562;14.440;2023-04-06T03:00:09;93828.00;;;7.30
41593;BMP180;28026;48.562;14.440;2023-04-06T03:02:40;93831.00;;;7.30
41593;BMP180;28026;48.562;14.440;2023-04-06T03:05:11;93831.00;;;7.20
41593;BMP180;28026;48.562;14.440;2023-04-06T03:07:42;93835.00;;;7.20
41593;BMP180;28026;48.562;14.440;2023-04-06T03:10:13;93817.00;;;7.20
41593;BMP180;28026;48.562;14.440;2023-04-06T03:12:44;93819.00;;;7.20
41593;BMP180;28026;48.562;14.440;2023-04-06T03:15:15;93831.00;;;7.10
41593;BMP180;28026;48.562;14.440;2023-04-06T03:17:46;93828.00;;;7.10
41593;BMP180;28026;48.562;14.440;2023-04-06T03:20:17;93832.00;;;7.10
41593;BMP180;28026;48.562;14.440;2023-04-06T03:22:48;93835.00;;;7.00
41593;BMP180;28026;48.562;14.440;2023-04-06T03:25:19;93834.00;;;7.00
41593;BMP180;28026;48.562;14.440;2023-04-06T03:27:50;93830.00;;;7.00
41593;BMP180;28026;48.562;14.440;2023-04-06T03:30:20;93839.00;;;6.90
41593;BMP180;28026;48.562;14.440;2023-04-06T03:32:51;93834.00;;;6.90
41593;BMP180;28026;48.562;14.440;2023-04-06T03:35:23;93841.00;;;6.90
41593;BMP180;28026;48.562;14.440;2023-04-06T03:37:55;93849.00;;;6.90
41593;BMP180;28026;48.562;14.440;2023-04-06T03:40:25;93844.00;;;6.90
41593;BMP180;28026;48.562;14.440;2023-04-06T03:42:57;93832.00;;;6.90
41593;BMP180;28026;48.562;14.440;2023-04-06T03:45:28;93839.00;;;6.90
41593;BMP180;28026;48.562;14.440;2023-04-06T03:47:59;93842.00;;;6.80
41593;BMP180;28026;48.562;14.440;2023-04-06T03:50:30;93834.00;;;6.80
41593;BMP180;28026;48.562;14.440;2023-04-06T03:53:01;93836.00;;;6.80
41593;BMP180;28026;48.562;14.440;2023-04-06T03:55:34;93841.00;;;6.70
41593;BMP180;28026;48.562;14.440;2023-04-06T03:58:05;93844.00;;;6.70
41593;BMP180;28026;48.562;14.440;2023-04-06T04:00:37;93854.00;;;6.70
41593;BMP180;28026;48.562;14.440;2023-04-06T04:03:08;93839.00;;;6.70
41593;BMP180;28026;48.562;14.440;2023-04-06T04:05:39;93851.00;;;6.60
41593;BMP180;28026;48.562;14.440;2023-04-06T04:08:09;93850.00;;;6.60
41593;BMP180;28026;48.562;14.440;2023-04-06T04:10:40;93853.00;;;6.60
41593;BMP180;28026;48.562;14.440;2023-04-06T04:13:11;93834.00;;;6.60
41593;BMP180;28026;48.562;14.440;2023-04-06T04:15:42;93849.00;;;6.60
41593;BMP180;28026;48.562;14.440;2023-04-06T04:18:13;93852.00;;;6.60
41593;BMP180;28026;48.562;14.440;2023-04-06T04:20:45;93843.00;;;6.60
41593;BMP180;28026;48.562;14.440;2023-04-06T04:23:16;93848.00;;;6.50
41593;BMP180;28026;48.562;14.440;2023-04-06T04:25:48;93848.00;;;6.50
41593;BMP180;28026;48.562;14.440;2023-04-06T04:28:19;93855.00;;;6.40
41593;BMP180;28026;48.562;14.440;2023-04-06T04:30:50;93852.00;;;6.50
41593;BMP180;28026;48.562;14.440;2023-04-06T04:33:21;93864.00;;;6.40
41593;BMP180;28026;48.562;14.440;2023-04-06T04:35:52;93857.00;;;6.30
41593;BMP180;28026;48.562;14.440;2023-04-06T04:38:23;93871.00;;;6.40
41593;BMP180;28026;48.562;14.440;2023-04-06T04:40:54;93875.00;;;6.40
41593;BMP180;28026;48.562;14.440;2023-04-06T04:43:25;93871.00;;;6.30
41593;BMP180;28026;48.562;14.440;2023-04-06T04:45:56;93885.00;;;6.30
41593;BMP180;28026;48.562;14.440;2023-04-06T04:48:27;93875.00;;;6.30
41593;BMP180;28026;48.562;14.440;2023-04-06T04:50:58;93873.00;;;6.30
41593;BMP180;28026;48.562;14.440;2023-04-06T04:53:29;93879.00;;;6.30
41593;BMP180;28026;48.562;14.440;2023-04-06T04:56:00;93881.00;;;6.40
41593;BMP180;28026;48.562;14.440;2023-04-06T04:58:31;93878.00;;;6.40
41593;BMP180;28026;48.562;14.440;2023-04-06T05:01:02;93888.00;;;6.40
41593;BMP180;28026;48.562;14.440;2023-04-06T05:03:33;93885.00;;;6.40
41593;BMP180;28026;48.562;14.440;2023-04-06T05:06:05;93885.00;;;6.40
41593;BMP180;28026;48.562;14.440;2023-04-06T05:08:36;93881.00;;;6.50
41593;BMP180;28026;48.562;14.440;2023-04-06T05:11:08;93880.00;;;6.50
41593;BMP180;28026;48.562;14.440;2023-04-06T05:13:39;93888.00;;;6.50
41593;BMP180;28026;48.562;14.440;2023-04-06T05:16:11;93876.00;;;6.60
41593;BMP180;28026;48.562;14.440;2023-04-06T05:18:42;93880.00;;;6.60
41593;BMP180;28026;48.562;14.440;2023-04-06T05:21:13;93887.00;;;6.70
41593;BMP180;28026;48.562;14.440;2023-04-06T05:23:44;93884.00;;;6.70
41593;BMP180;28026;48.562;14.440;2023-04-06T05:26:15;93880.00;;;6.70
41593;BMP180;28026;48.562;14.440;2023-04-06T05:28:46;93882.00;;;6.70
41593;BMP180;28026;48.562;14.440;2023-04-06T05:31:17;93890.00;;;6.70
41593;BMP180;28026;48.562;14.440;2023-04-06T05:33:48;93887.00;;;6.70
41593;BMP180;28026;48.562;14.440;2023-04-06T05:36:19;93891.00;;;6.80
41593;BMP180;28026;48.562;14.440;2023-04-06T05:38:50;93892.00;;;6.80
41593;BMP180;28026;48.562;14.440;2023-04-06T05:41:22;93890.00;;;6.80
41593;BMP180;28026;48.562;14.440;2023-04-06T05:43:53;93897.00;;;6.80
41593;BMP180;28026;48.562;14.440;2023-04-06T05:46:24;93893.00;;;6.90
41593;BMP180;28026;48.562;14.440;2023-04-06T05:48:55;93887.00;;;6.90
41593;BMP180;28026;48.562;14.440;2023-04-06T05:51:26;93897.00;;;6.90
41593;BMP180;28026;48.562;14.440;2023-04-06T05:53:57;93893.00;;;7.00
41593;BMP180;28026;48.562;14.440;2023-04-06T05:56:28;93900.00;;;7.00
41593;BMP180;28026;48.562;14.440;2023-04-06T05:59:00;93901.00;;;7.10
41593;BMP180;28026;48.562;14.440;2023-04-06T06:01:33;93898.00;;;7.20
41593;BMP180;28026;48.562;14.440;2023-04-06T06:04:05;93899.00;;;7.30
41593;BMP180;28026;48.562;14.440;2023-04-06T06:06:36;93892.00;;;7.40
41593;BMP180;28026;48.562;14.440;2023-04-06T06:09:07;93904.00;;;7.30
41593;BMP180;28026;48.562;14.440;2023-04-06T06:11:38;93892.00;;;7.20
41593;BMP180;28026;48.562;14.440;2023-04-06T06:14:09;93895.00;;;7.20
41593;BMP180;28026;48.562;14.440;2023-04-06T06:16:40;93901.00;;;7.30
41593;BMP180;28026;48.562;14.440;2023-04-06T06:19:11;93896.00;;;7.30
41593;BMP180;28026;48.562;14.440;2023-04-06T06:21:42;93902.00;;;7.40
41593;BMP180;28026;48.562;14.440;2023-04-06T06:24:13;93903.00;;;7.40
41593;BMP180;28026;48.562;14.440;2023-04-06T06:26:44;93900.00;;;7.50
41593;BMP180;28026;48.562;14.440;2023-04-06T06:29:15;93904.00;;;7.50
41593;BMP180;28026;48.562;14.440;2023-04-06T06:31:46;93902.00;;;7.50
41593;BMP180;28026;48.562;14.440;2023-04-06T06:34:17;93901.00;;;7.60
41593;BMP180;28026;48.562;14.440;2023-04-06T06:36:48;93904.00;;;7.60
41593;BMP180;28026;48.562;14.440;2023-04-06T06:39:19;93902.00;;;7.60
41593;BMP180;28026;48.562;14.440;2023-04-06T06:41:50;93900.00;;;7.70
41593;BMP180;28026;48.562;14.440;2023-04-06T06:44:21;93895.00;;;7.90
41593;BMP180;28026;48.562;14.440;2023-04-06T06:46:52;93907.00;;;8.00
41593;BMP180;28026;48.562;14.440;2023-04-06T06:49:23;93898.00;;;8.10
41593;BMP180;28026;48.562;14.440;2023-04-06T06:51:54;93891.00;;;8.20
41593;BMP180;28026;48.562;14.440;2023-04-06T06:54:25;93905.00;;;8.20
41593;BMP180;28026;48.562;14.440;2023-04-06T06:56:56;93907.00;;;8.20
41593;BMP180;28026;48.562;14.440;2023-04-06T06:59:27;93902.00;;;8.20
41593;BMP180;28026;48.562;14.440;2023-04-06T07:01:58;93903.00;;;8.30
41593;BMP180;28026;48.562;14.440;2023-04-06T07:04:29;93923.00;;;8.30
41593;BMP180;28026;48.562;14.440;2023-04-06T07:07:00;93910.00;;;8.40
41593;BMP180;28026;48.562;14.440;2023-04-06T07:09:31;93925.00;;;8.40
41593;BMP180;28026;48.562;14.440;2023-04-06T07:12:03;93915.00;;;8.50
41593;BMP180;28026;48.562;14.440;2023-04-06T07:14:34;93915.00;;;8.60
41593;BMP180;28026;48.562;14.440;2023-04-06T07:17:07;93923.00;;;8.70
41593;BMP180;28026;48.562;14.440;2023-04-06T07:19:38;93925.00;;;8.80
41593;BMP180;28026;48.562;14.440;2023-04-06T07:22:10;93923.00;;;8.90
41593;BMP180;28026;48.562;14.440;2023-04-06T07:24:40;93931.00;;;9.00
41593;BMP180;28026;48.562;14.440;2023-04-06T07:27:11;93931.00;;;9.20
41593;BMP180;28026;48.562;14.440;2023-04-06T07:29:42;93925.00;;;9.30
41593;BMP180;28026;48.562;14.440;2023-04-06T07:32:13;93928.00;;;9.40
41593;BMP180;28026;48.562;14.440;2023-04-06T07:34:45;93919.00;;;9.60
41593;BMP180;28026;48.562;14.440;2023-04-06T07:37:17;93924.00;;;9.70
41593;BMP180;28026;48.562;14.440;2023-04-06T07:39:48;93924.00;;;9.90
41593;BMP180;28026;48.562;14.440;2023-04-06T07:42:19;93920.00;;;10.10
41593;BMP180;28026;48.562;14.440;2023-04-06T07:44:50;93921.00;;;10.40
41593;BMP180;28026;48.562;14.440;2023-04-06T07:47:21;93920.00;;;10.70
41593;BMP180;28026;48.562;14.440;2023-04-06T07:49:54;93921.00;;;11.00
41593;BMP180;28026;48.562;14.440;2023-04-06T07:52:26;93922.00;;;11.10
41593;BMP180;28026;48.562;14.440;2023-04-06T07:54:58;93920.00;;;11.20
41593;BMP180;28026;48.562;14.440;2023-04-06T07:57:29;93914.00;;;11.30
41593;BMP180;28026;48.562;14.440;2023-04-06T08:00:00;93916.00;;;11.40
41593;BMP180;28026;48.562;14.440;2023-04-06T08:02:32;93919.00;;;11.40
41593;BMP180;28026;48.562;14.440;2023-04-06T08:05:03;93914.00;;;11.50
41593;BMP180;28026;48.562;14.440;2023-04-06T08:07:34;93922.00;;;11.50
41593;BMP180;28026;48.562;14.440;2023-04-06T08:10:06;93915.00;;;11.60
41593;BMP180;28026;48.562;14.440;2023-04-06T08:12:37;93923.00;;;11.70
41593;BMP180;28026;48.562;14.440;2023-04-06T08:15:09;93921.00;;;11.80
41593;BMP180;28026;48.562;14.440;2023-04-06T08:17:40;93920.00;;;12.10
41593;BMP180;28026;48.562;14.440;2023-04-06T08:20:11;93911.00;;;12.20
41593;BMP180;28026;48.562;14.440;2023-04-06T08:22:42;93908.00;;;12.30
41593;BMP180;28026;48.562;14.440;2023-04-06T08:25:13;93912.00;;;12.50
41593;BMP180;28026;48.562;14.440;2023-04-06T08:27:44;93921.00;;;12.60
41593;BMP180;28026;48.562;14.440;2023-04-06T08:30:15;93919.00;;;12.50
41593;BMP180;28026;48.562;14.440;2023-04-06T08:32:46;93914.00;;;12.70
41593;BMP180;28026;48.562;14.440;2023-04-06T08:35:17;93924.00;;;12.80
41593;BMP180;28026;48.562;14.440;2023-04-06T08:37:48;93913.00;;;13.00
41593;BMP180;28026;48.562;14.440;2023-04-06T08:40:19;93920.00;;;12.90
41593;BMP180;28026;48.562;14.440;2023-04-06T08:42:55;93916.00;;;12.90
41593;BMP180;28026;48.562;14.440;2023-04-06T08:45:26;93912.00;;;13.20
41593;BMP180;28026;48.562;14.440;2023-04-06T08:47:59;93905.00;;;13.50
41593;BMP180;28026;48.562;14.440;2023-04-06T08:50:33;93907.00;;;13.70
41593;BMP180;28026;48.562;14.440;2023-04-06T08:53:06;93913.00;;;13.80
41593;BMP180;28026;48.562;14.440;2023-04-06T08:55:39;93902.00;;;14.10
41593;BMP180;28026;48.562;14.440;2023-04-06T08:58:13;93906.00;;;14.50
41593;BMP180;28026;48.562;14.440;2023-04-06T09:00:45;93901.00;;;14.90
41593;BMP180;28026;48.562;14.440;2023-04-06T09:03:17;93898.00;;;15.20
41593;BMP180;28026;48.562;14.440;2023-04-06T09:05:50;93901.00;;;15.60
41593;BMP180;28026;48.562;14.440;2023-04-06T09:08:21;93902.00;;;15.80
41593;BMP180;28026;48.562;14.440;2023-04-06T09:10:52;93901.00;;;16.00
41593;BMP180;28026;48.562;14.440;2023-04-06T09:13:23;93901.00;;;16.30
41593;BMP180;28026;48.562;14.440;2023-04-06T09:16:03;93891.00;;;16.50
41593;BMP180;28026;48.562;14.440;2023-04-06T09:18:35;93899.00;;;16.60
41593;BMP180;28026;48.562;14.440;2023-04-06T09:21:08;93895.00;;;16.70
41593;BMP180;28026;48.562;14.440;2023-04-06T09:23:40;93890.00;;;16.40
41593;BMP180;28026;48.562;14.440;2023-04-06T09:26:16;93890.00;;;16.50
41593;BMP180;28026;48.562;14.440;2023-04-06T09:28:53;93884.00;;;16.60
41593;BMP180;28026;48.562;14.440;2023-04-06T09:31:29;93879.00;;;16.40
41593;BMP180;28026;48.562;14.440;2023-04-06T09:34:01;93884.00;;;16.10
41593;BMP180;28026;48.562;14.440;2023-04-06T09:36:35;93883.00;;;16.00
41593;BMP180;28026;48.562;14.440;2023-04-06T09:39:08;93883.00;;;16.20
41593;BMP180;28026;48.562;14.440;2023-04-06T09:41:40;93885.00;;;16.00
41593;BMP180;28026;48.562;14.440;2023-04-06T09:44:12;93883.00;;;15.90
41593;BMP180;28026;48.562;14.440;2023-04-06T09:46:45;93881.00;;;15.80
41593;BMP180;28026;48.562;14.440;2023-04-06T09:49:18;93879.00;;;15.60
41593;BMP180;28026;48.562;14.440;2023-04-06T09:52:02;93881.00;;;15.50
41593;BMP180;28026;48.562;14.440;2023-04-06T09:54:36;93894.00;;;15.80
41593;BMP180;28026;48.562;14.440;2023-04-06T09:57:25;93888.00;;;16.50
41593;BMP180;28026;48.562;14.440;2023-04-06T10:00:09;93882.00;;;16.90
41593;BMP180;28026;48.562;14.440;2023-04-06T10:06:00;93878.00;;;17.30
41593;BMP180;28026;48.562;14.440;2023-04-06T10:08:38;93886.00;;;17.10
41593;BMP180;28026;48.562;14.440;2023-04-06T10:11:12;93885.00;;;16.90
41593;BMP180;28026;48.562;14.440;2023-04-06T10:13:47;93864.00;;;17.10
41593;BMP180;28026;48.562;14.440;2023-04-06T10:16:19;93865.00;;;17.50
41593;BMP180;28026;48.562;14.440;2023-04-06T10:19:00;93869.00;;;17.50
41593;BMP180;28026;48.562;14.440;2023-04-06T10:21:39;93864.00;;;17.20
41593;BMP180;28026;48.562;14.440;2023-04-06T10:24:12;93864.00;;;17.00
41593;BMP180;28026;48.562;14.440;2023-04-06T10:27:03;93855.00;;;16.90
41593;BMP180;28026;48.562;14.440;2023-04-06T10:29:47;93857.00;;;17.00
41593;BMP180;28026;48.562;14.440;2023-04-06T10:32:32;93862.00;;;17.00
41593;BMP180;28026;48.562;14.440;2023-04-06T10:35:11;93849.00;;;17.00
41593;BMP180;28026;48.562;14.440;2023-04-06T10:37:49;93847.00;;;17.10
41593;BMP180;28026;48.562;14.440;2023-04-06T10:40:25;93842.00;;;17.20
41593;BMP180;28026;48.562;14.440;2023-04-06T10:43:18;93847.00;;;17.20
41593;BMP180;28026;48.562;14.440;2023-04-06T10:46:00;93841.00;;;17.60
41593;BMP180;28026;48.562;14.440;2023-04-06T10:48:45;93840.00;;;17.80
41593;BMP180;28026;48.562;14.440;2023-04-06T10:51:18;93838.00;;;18.00
41593;BMP180;28026;48.562;14.440;2023-04-06T10:53:56;93839.00;;;18.30
41593;BMP180;28026;48.562;14.440;2023-04-06T10:56:30;93834.00;;;18.70
41593;BMP180;28026;48.562;14.440;2023-04-06T10:59:06;93842.00;;;18.60
41593;BMP180;28026;48.562;14.440;2023-04-06T11:01:38;93833.00;;;18.00
41593;BMP180;28026;48.562;14.440;2023-04-06T11:04:09;93841.00;;;17.90
41593;BMP180;28026;48.562;14.440;2023-04-06T11:06:48;93822.00;;;18.20
41593;BMP180;28026;48.562;14.440;2023-04-06T11:09:27;93817.00;;;18.30
41593;BMP180;28026;48.562;14.440;2023-04-06T11:11:59;93832.00;;;18.40
41593;BMP180;28026;48.562;14.440;2023-04-06T11:14:31;93827.00;;;18.50
41593;BMP180;28026;48.562;14.440;2023-04-06T11:17:03;93827.00;;;18.50
41593;BMP180;28026;48.562;14.440;2023-04-06T11:19:34;93832.00;;;18.30
41593;BMP180;28026;48.562;14.440;2023-04-06T11:22:09;93825.00;;;18.10
41593;BMP180;28026;48.562;14.440;2023-04-06T11:24:40;93821.00;;;18.30
41593;BMP180;28026;48.562;14.440;2023-04-06T11:27:12;93819.00;;;18.40
41593;BMP180;28026;48.562;14.440;2023-04-06T11:29:45;93814.00;;;18.20
41593;BMP180;28026;48.562;14.440;2023-04-06T11:32:22;93810.00;;;18.00
41593;BMP180;28026;48.562;14.440;2023-04-06T11:34:54;93818.00;;;18.10
41593;BMP180;28026;48.562;14.440;2023-04-06T11:37:26;93811.00;;;18.50
41593;BMP180;28026;48.562;14.440;2023-04-06T11:39:58;93809.00;;;18.70
41593;BMP180;28026;48.562;14.440;2023-04-06T11:42:30;93804.00;;;19.00
41593;BMP180;28026;48.562;14.440;2023-04-06T11:45:00;93809.00;;;19.00
41593;BMP180;28026;48.562;14.440;2023-04-06T11:47:36;93808.00;;;18.80
41593;BMP180;28026;48.562;14.440;2023-04-06T11:50:14;93805.00;;;18.40
41593;BMP180;28026;48.562;14.440;2023-04-06T11:52:45;93793.00;;;18.20
41593;BMP180;28026;48.562;14.440;2023-04-06T11:55:28;93791.00;;;18.40
41593;BMP180;28026;48.562;14.440;2023-04-06T11:57:59;93793.00;;;18.70
41593;BMP180;28026;48.562;14.440;2023-04-06T12:00:30;93800.00;;;18.70
41593;BMP180;28026;48.562;14.440;2023-04-06T12:03:05;93794.00;;;18.60
41593;BMP180;28026;48.562;14.440;2023-04-06T12:05:36;93793.00;;;18.50
41593;BMP180;28026;48.562;14.440;2023-04-06T12:08:07;93784.00;;;18.40
41593;BMP180;28026;48.562;14.440;2023-04-06T12:10:38;93784.00;;;18.30
41593;BMP180;28026;48.562;14.440;2023-04-06T12:13:09;93788.00;;;18.30
41593;BMP180;28026;48.562;14.440;2023-04-06T12:15:40;93788.00;;;17.90
41593;BMP180;28026;48.562;14.440;2023-04-06T12:18:11;93787.00;;;17.60
41593;BMP180;28026;48.562;14.440;2023-04-06T12:20:42;93782.00;;;17.60
41593;BMP180;28026;48.562;14.440;2023-04-06T12:23:13;93774.00;;;17.80
41593;BMP180;28026;48.562;14.440;2023-04-06T12:25:44;93776.00;;;18.20
41593;BMP180;28026;48.562;14.440;2023-04-06T12:28:15;93773.00;;;18.50
41593;BMP180;28026;48.562;14.440;2023-04-06T12:30:46;93775.00;;;18.50
41593;BMP180;28026;48.562;14.440;2023-04-06T12:33:17;93760.00;;;18.30
41593;BMP180;28026;48.562;14.440;2023-04-06T12:35:48;93777.00;;;18.20
41593;BMP180;28026;48.562;14.440;2023-04-06T12:38:19;93766.00;;;17.90
41593;BMP180;28026;48.562;14.440;2023-04-06T12:40:50;93764.00;;;17.90
41593;BMP180;28026;48.562;14.440;2023-04-06T12:43:22;93765.00;;;18.10
41593;BMP180;28026;48.562;14.440;2023-04-06T12:45:53;93771.00;;;18.50
41593;BMP180;28026;48.562;14.440;2023-04-06T12:48:25;93764.00;;;18.60
41593;BMP180;28026;48.562;14.440;2023-04-06T12:51:00;93770.00;;;18.40
41593;BMP180;28026;48.562;14.440;2023-04-06T12:53:34;93761.00;;;18.00
41593;BMP180;28026;48.562;14.440;2023-04-06T12:56:18;93767.00;;;17.70
41593;BMP180;28026;48.562;14.440;2023-04-06T12:58:52;93761.00;;;17.70
41593;BMP180;28026;48.562;14.440;2023-04-06T13:01:23;93760.00;;;17.90
41593;BMP180;28026;48.562;14.440;2023-04-06T13:03:56;93750.00;;;17.90
41593;BMP180;28026;48.562;14.440;2023-04-06T13:06:28;93759.00;;;18.10
41593;BMP180;28026;48.562;14.440;2023-04-06T13:08:59;93769.00;;;18.30
41593;BMP180;28026;48.562;14.440;2023-04-06T13:11:30;93752.00;;;18.40
41593;BMP180;28026;48.562;14.440;2023-04-06T13:14:02;93759.00;;;18.10
41593;BMP180;28026;48.562;14.440;2023-04-06T13:16:32;93759.00;;;18.00
41593;BMP180;28026;48.562;14.440;2023-04-06T13:19:03;93744.00;;;17.70
41593;BMP180;28026;48.562;14.440;2023-04-06T13:21:34;93750.00;;;17.60
41593;BMP180;28026;48.562;14.440;2023-04-06T13:24:05;93745.00;;;17.60
41593;BMP180;28026;48.562;14.440;2023-04-06T13:26:36;93754.00;;;17.70
41593;BMP180;28026;48.562;14.440;2023-04-06T13:29:08;93750.00;;;17.90
41593;BMP180;28026;48.562;14.440;2023-04-06T13:31:38;93739.00;;;18.10
41593;BMP180;28026;48.562;14.440;2023-04-06T13:34:10;93737.00;;;18.20
41593;BMP180;28026;48.562;14.440;2023-04-06T13:36:41;93750.00;;;18.10
41593;BMP180;28026;48.562;14.440;2023-04-06T13:39:13;93741.00;;;18.20
41593;BMP180;28026;48.562;14.440;2023-04-06T13:41:44;93737.00;;;18.20
41593;BMP180;28026;48.562;14.440;2023-04-06T13:44:15;93740.00;;;18.30
41593;BMP180;28026;48.562;14.440;2023-04-06T13:46:46;93728.00;;;18.80
41593;BMP180;28026;48.562;14.440;2023-04-06T13:49:18;93745.00;;;19.40
41593;BMP180;28026;48.562;14.440;2023-04-06T13:51:49;93743.00;;;19.70
41593;BMP180;28026;48.562;14.440;2023-04-06T13:54:20;93743.00;;;19.50
41593;BMP180;28026;48.562;14.440;2023-04-06T13:56:51;93733.00;;;19.50
41593;BMP180;28026;48.562;14.440;2023-04-06T13:59:22;93732.00;;;19.70
41593;BMP180;28026;48.562;14.440;2023-04-06T14:01:53;93734.00;;;20.00
41593;BMP180;28026;48.562;14.440;2023-04-06T14:04:24;93743.00;;;20.20
41593;BMP180;28026;48.562;14.440;2023-04-06T14:06:56;93733.00;;;20.00
41593;BMP180;28026;48.562;14.440;2023-04-06T14:09:28;93726.00;;;19.80
41593;BMP180;28026;48.562;14.440;2023-04-06T14:12:00;93736.00;;;19.80
41593;BMP180;28026;48.562;14.440;2023-04-06T14:14:31;93738.00;;;19.50
41593;BMP180;28026;48.562;14.440;2023-04-06T14:17:01;93731.00;;;19.40
41593;BMP180;28026;48.562;14.440;2023-04-06T14:19:32;93735.00;;;19.30
41593;BMP180;28026;48.562;14.440;2023-04-06T14:22:04;93727.00;;;19.30
41593;BMP180;28026;48.562;14.440;2023-04-06T14:24:35;93723.00;;;19.70
41593;BMP180;28026;48.562;14.440;2023-04-06T14:27:06;93724.00;;;19.90
41593;BMP180;28026;48.562;14.440;2023-04-06T14:29:37;93726.00;;;20.20
41593;BMP180;28026;48.562;14.440;2023-04-06T14:32:08;93728.00;;;20.50
41593;BMP180;28026;48.562;14.440;2023-04-06T14:34:39;93723.00;;;20.70